Time;durP1;ratioP1;P1;durP2;ratioP2;P2;SDS_P1;SDS_P2;PMS_P1;PMS_P2;Temp;Humidity;BMP_temperature;BMP_pressure;BME280_temperature;BME280_humidity;BME280_pressure;Samples;Min_cycle;Max_cycle;Signal;HPM_P1;HPM_P2
2023/01/15 04:02:05;;;;;;;9.13;8.83;;;11.90;99.90;;;;;;5096631;23;20607;-79
2023/01/15 04:04:32;;;;;;;6.73;6.53;;;11.80;99.90;;;;;;4849519;29;20196;-78
2023/01/15 04:07:00;;;;;;;4.63;4.53;;;11.80;99.90;;;;;;4849860;29;20564;-79
2023/01/15 04:09:27;;;;;;;9.13;8.83;;;11.80;99.90;;;;;;4857795;29;20189;-79
2023/01/15 04:11:52;;;;;;;18.70;17.90;;;11.90;99.90;;;;;;4863303;29;20635;-79
2023/01/15 04:14:18;;;;;;;16.53;15.83;;;11.90;99.90;;;;;;4845429;29;20214;-79
2023/01/15 04:16:44;;;;;;;23.40;22.27;;;11.90;99.90;;;;;;4843040;29;20553;-78
2023/01/15 04:19:10;;;;;;;24.30;23.23;;;12.00;99.90;;;;;;4844000;29;20220;-78
2023/01/15 04:21:35;;;;;;;26.57;25.37;;;12.00;99.90;;;;;;4844562;29;20757;-78
2023/01/15 04:24:01;;;;;;;33.83;32.33;;;12.00;99.90;;;;;;4848391;29;20436;-79
2023/01/15 04:26:27;;;;;;;31.20;29.80;;;11.90;99.90;;;;;;4847073;29;20569;-79
2023/01/15 04:28:53;;;;;;;34.33;32.83;;;12.00;99.90;;;;;;4843246;29;20694;-79
2023/01/15 04:31:18;;;;;;;41.47;39.57;;;11.90;99.90;;;;;;4844598;29;20750;-78
2023/01/15 04:33:44;;;;;;;48.30;46.00;;;12.00;99.90;;;;;;4852879;29;20246;-78
2023/01/15 04:36:10;;;;;;;45.87;43.77;;;12.00;99.90;;;;;;4850985;29;20199;-78
2023/01/15 04:38:39;;;;;;;43.10;41.10;;;12.00;99.90;;;;;;4850496;29;20213;-79
2023/01/15 04:44:05;;;;;;;46.03;43.93;;;12.00;99.90;;;;;;4830744;29;20182;-79
2023/01/15 04:46:34;;;;;;;44.47;42.43;;;12.00;99.90;;;;;;4843139;29;20190;-78
2023/01/15 04:49:00;;;;;;;45.70;43.60;;;12.00;99.90;;;;;;4843442;29;20289;-78
2023/01/15 04:51:25;;;;;;;35.57;33.93;;;12.00;99.90;;;;;;4842040;29;20655;-78
2023/01/15 04:53:52;;;;;;;36.70;35.03;;;12.00;99.90;;;;;;4844436;29;20274;-79
2023/01/15 04:56:18;;;;;;;34.10;32.60;;;12.00;99.90;;;;;;4842763;29;20685;-78
2023/01/15 04:58:44;;;;;;;33.77;32.17;;;12.00;99.90;;;;;;4842274;29;20217;-78
2023/01/15 05:01:18;;;;;;;26.33;25.20;;;12.00;99.90;;;;;;4843747;29;20221;-79
2023/01/15 05:03:44;;;;;;;28.47;27.27;;;12.00;99.90;;;;;;4845790;29;20226;-77
2023/01/15 05:06:13;;;;;;;19.83;19.03;;;11.90;99.90;;;;;;4851710;29;20190;-78
2023/01/15 05:08:39;;;;;;;17.97;17.27;;;12.00;99.90;;;;;;4858508;29;20194;-78
2023/01/15 05:11:06;;;;;;;18.43;17.53;;;12.00;99.90;;;;;;4845846;29;20682;-79
2023/01/15 05:13:32;;;;;;;17.63;16.93;;;12.00;99.90;;;;;;4843351;29;20197;-79
2023/01/15 05:16:13;;;;;;;17.17;16.47;;;11.90;99.90;;;;;;4842592;29;20583;-80
2023/01/15 05:18:40;;;;;;;22.00;21.03;;;12.00;99.90;;;;;;4841313;29;20224;-78
2023/01/15 05:21:05;;;;;;;23.40;22.40;;;12.00;99.90;;;;;;4841590;29;20205;-80
2023/01/15 05:23:31;;;;;;;24.73;23.67;;;12.00;99.90;;;;;;4841848;29;20341;-79
2023/01/15 05:25:57;;;;;;;25.27;24.07;;;12.00;99.90;;;;;;4843348;29;20204;-79
2023/01/15 05:28:26;;;;;;;20.10;19.27;;;12.00;99.90;;;;;;4839869;29;20202;-79
2023/01/15 05:30:54;;;;;;;25.50;24.40;;;12.00;99.90;;;;;;4840426;29;20226;-79
2023/01/15 05:33:19;;;;;;;26.47;25.33;;;12.10;99.90;;;;;;4841617;29;20204;-79
2023/01/15 05:35:45;;;;;;;36.00;34.37;;;12.00;99.90;;;;;;4841069;29;20186;-80
2023/01/15 05:38:11;;;;;;;13.97;13.37;;;12.10;99.90;;;;;;4848507;29;20216;-79
2023/01/15 05:40:37;;;;;;;26.57;25.37;;;11.80;99.90;;;;;;4860861;29;20253;-78
2023/01/15 05:43:03;;;;;;;3.93;3.73;;;11.50;99.90;;;;;;4845488;29;20193;-77
2023/01/15 05:45:28;;;;;;;61.50;57.83;;;11.20;99.90;;;;;;4839959;29;20196;-77
2023/01/15 05:47:54;;;;;;;19.53;18.63;;;10.80;99.90;;;;;;4841603;29;20197;-76
2023/01/15 05:50:20;;;;;;;20.17;19.23;;;10.20;99.90;;;;;;4847939;29;20189;-78
2023/01/15 05:52:46;;;;;;;3.87;3.77;;;9.80;99.90;;;;;;4841293;29;20189;-77
2023/01/15 05:55:11;;;;;;;12.20;11.70;;;9.50;99.90;;;;;;4841771;29;20189;-78
2023/01/15 05:57:37;;;;;;;15.97;15.33;;;9.30;99.90;;;;;;4842798;29;20256;-77
2023/01/15 06:00:04;;;;;;;13.43;12.83;;;9.20;99.90;;;;;;4842704;29;20725;-76
2023/01/15 06:02:30;;;;;;;10.13;9.77;;;9.10;99.90;;;;;;4839659;29;20295;-77
2023/01/15 06:04:56;;;;;;;7.53;7.23;;;9.00;99.90;;;;;;4839250;29;20214;-77
2023/01/15 06:07:21;;;;;;;5.90;5.73;;;9.00;99.90;;;;;;4839632;29;20315;-77
2023/01/15 06:09:47;;;;;;;14.60;14.00;;;8.80;99.90;;;;;;4842196;29;20657;-77
2023/01/15 06:12:13;;;;;;;4.37;4.27;;;8.80;99.90;;;;;;4843943;29;20254;-77
2023/01/15 06:14:39;;;;;;;9.13;8.80;;;8.70;99.90;;;;;;4838844;29;20221;-77
2023/01/15 06:17:04;;;;;;;31.80;30.40;;;8.60;99.90;;;;;;4839728;29;20709;-77
2023/01/15 06:19:30;;;;;;;17.80;17.10;;;8.60;99.90;;;;;;4844380;29;20217;-77
2023/01/15 06:21:56;;;;;;;12.37;11.80;;;8.40;99.90;;;;;;4855131;29;20209;-77
2023/01/15 06:24:22;;;;;;;13.70;13.17;;;8.40;99.90;;;;;;4845774;29;20250;-68
2023/01/15 06:26:48;;;;;;;11.13;10.70;;;8.30;99.90;;;;;;4842939;29;20209;-69
2023/01/15 06:29:17;;;;;;;14.10;13.53;;;8.30;99.90;;;;;;4841964;29;20185;-69
2023/01/15 06:31:43;;;;;;;18.27;17.50;;;8.30;99.90;;;;;;4843289;29;20304;-69
2023/01/15 06:34:09;;;;;;;7.20;7.00;;;8.30;99.90;;;;;;4856140;29;20192;-69
2023/01/15 06:36:35;;;;;;;9.37;9.00;;;8.20;99.90;;;;;;4861223;29;20188;-69
2023/01/15 06:39:00;;;;;;;13.20;12.67;;;8.20;99.90;;;;;;4846364;29;20214;-69
2023/01/15 06:49:45;;;;;;;10.93;10.53;;;8.00;99.90;;;;;;4824145;29;20257;-70
2023/01/15 06:52:10;;;;;;;10.23;9.83;;;8.00;99.90;;;;;;4841070;29;20205;-70
2023/01/15 06:54:36;;;;;;;23.83;22.73;;;8.00;99.90;;;;;;4842517;29;20274;-69
2023/01/15 06:57:02;;;;;;;22.43;21.43;;;8.00;99.90;;;;;;4842632;29;20292;-68
2023/01/15 06:59:28;;;;;;;27.20;25.97;;;7.90;99.90;;;;;;4842246;29;20225;-69
2023/01/15 07:01:54;;;;;;;24.07;23.00;;;7.90;99.90;;;;;;4842398;29;20303;-69
2023/01/15 07:04:20;;;;;;;24.97;23.90;;;7.90;99.90;;;;;;4842777;29;20189;-69
2023/01/15 07:06:46;;;;;;;118.57;112.70;;;7.80;99.90;;;;;;4841778;29;20768;-68
2023/01/15 07:09:12;;;;;;;6.40;6.10;;;7.70;99.90;;;;;;4845236;29;20258;-68
2023/01/15 07:11:48;;;;;;;84.57;80.43;;;7.70;99.90;;;;;;4859397;29;20277;-69
2023/01/15 07:14:22;;;;;;;126.57;120.47;;;7.50;99.90;;;;;;4823816;29;20198;-68
2023/01/15 07:16:49;;;;;;;32.67;31.10;;;7.50;99.90;;;;;;4822069;29;20189;-69
2023/01/15 07:19:15;;;;;;;26.97;25.53;;;7.30;99.90;;;;;;4824536;29;20630;-69
2023/01/15 07:21:41;;;;;;;15.90;15.20;;;7.30;99.90;;;;;;4838894;29;20202;-69
2023/01/15 07:24:08;;;;;;;15.87;15.23;;;7.20;99.90;;;;;;4841933;29;20573;-69
2023/01/15 07:26:34;;;;;;;28.83;27.53;;;7.10;99.90;;;;;;4841225;29;20189;-69
2023/01/15 07:29:00;;;;;;;27.43;26.17;;;7.00;99.90;;;;;;4841223;29;20204;-70
2023/01/15 07:31:25;;;;;;;36.33;34.63;;;7.00;99.90;;;;;;4842219;29;20248;-71
2023/01/15 07:33:51;;;;;;;44.47;42.30;;;6.90;99.90;;;;;;4842025;29;20193;-68
2023/01/15 07:36:17;;;;;;;19.77;18.93;;;6.80;99.90;;;;;;4842611;29;20201;-70
2023/01/15 07:38:43;;;;;;;15.23;14.63;;;6.80;99.90;;;;;;4841996;29;20248;-68
2023/01/15 07:52:06;;;;;;;5.63;5.43;;;6.50;99.90;;;;;;4841385;29;20224;-69
2023/01/15 07:54:32;;;;;;;8.30;8.00;;;6.40;99.90;;;;;;4842081;29;20272;-68
2023/01/15 07:56:58;;;;;;;24.13;23.00;;;6.40;99.90;;;;;;4840406;29;20921;-68
2023/01/15 07:59:24;;;;;;;39.80;37.90;;;6.40;99.90;;;;;;4841628;29;20240;-69
2023/01/15 08:01:50;;;;;;;7.40;7.13;;;6.40;99.90;;;;;;4841078;29;20221;-68
2023/01/15 08:04:16;;;;;;;5.37;5.17;;;6.30;99.90;;;;;;4840881;29;20667;-69
2023/01/15 08:06:42;;;;;;;7.57;7.30;;;6.30;99.90;;;;;;4841237;29;20242;-69
2023/01/15 08:09:07;;;;;;;6.43;6.23;;;6.30;99.90;;;;;;4843876;29;20193;-73
2023/01/15 08:17:02;;;;;;;18.93;18.13;;;6.20;99.90;;;;;;4841042;29;20224;-70
2023/01/15 08:19:31;;;;;;;24.30;23.27;;;6.20;99.90;;;;;;4840948;29;20245;-69
2023/01/15 08:22:00;;;;;;;18.20;17.43;;;6.20;99.90;;;;;;4839350;29;20698;-69
2023/01/15 08:24:27;;;;;;;18.80;18.03;;;6.20;99.90;;;;;;4841110;29;20213;-69
2023/01/15 08:26:53;;;;;;;17.73;17.00;;;6.20;99.90;;;;;;4839523;29;20736;-70
2023/01/15 08:29:20;;;;;;;21.47;20.53;;;6.20;99.90;;;;;;4840954;29;20276;-70
2023/01/15 08:31:46;;;;;;;28.17;26.90;;;6.20;99.90;;;;;;4840984;29;20296;-70
2023/01/15 08:34:12;;;;;;;39.47;37.63;;;6.30;99.90;;;;;;4839530;29;20326;-70
2023/01/15 08:36:37;;;;;;;37.13;35.43;;;6.20;99.90;;;;;;4853118;29;20220;-70
2023/01/15 08:39:03;;;;;;;44.93;42.80;;;6.30;99.90;;;;;;4857159;29;20220;-70
2023/01/15 08:41:30;;;;;;;22.07;21.10;;;6.30;99.90;;;;;;4856346;29;20626;-69
2023/01/15 08:43:56;;;;;;;23.27;22.27;;;6.30;99.90;;;;;;4840982;29;20238;-70
2023/01/15 08:46:22;;;;;;;23.60;22.57;;;6.30;99.90;;;;;;4830944;29;20277;-70
2023/01/15 08:48:48;;;;;;;18.20;17.43;;;6.30;99.90;;;;;;4830621;29;20201;-70
2023/01/15 08:51:14;;;;;;;28.23;26.97;;;6.30;99.90;;;;;;4835764;29;20209;-69
2023/01/15 08:53:40;;;;;;;21.13;20.23;;;6.30;99.90;;;;;;4836858;29;20193;-68
2023/01/15 08:56:19;;;;;;;14.17;13.57;;;6.30;99.90;;;;;;4844011;29;20197;-70
2023/01/15 08:58:46;;;;;;;3.80;3.70;;;6.20;99.90;;;;;;4837583;29;20645;-72
2023/01/15 09:01:15;;;;;;;4.00;3.90;;;6.20;99.90;;;;;;4839067;29;20217;-69
2023/01/15 09:03:42;;;;;;;13.87;13.30;;;6.20;99.90;;;;;;4838931;29;20193;-69
2023/01/15 09:06:08;;;;;;;21.07;20.17;;;6.20;99.90;;;;;;4839117;29;20190;-70
2023/01/15 09:08:34;;;;;;;20.00;18.93;;;6.20;99.90;;;;;;4838610;29;20192;-70
2023/01/15 09:11:01;;;;;;;19.33;18.57;;;6.20;99.90;;;;;;4840315;29;20284;-70
2023/01/15 09:13:28;;;;;;;8.43;8.13;;;6.20;99.90;;;;;;4840194;29;20190;-69
2023/01/15 09:15:58;;;;;;;30.33;28.73;;;6.10;99.90;;;;;;4840385;29;20630;-70
2023/01/15 09:18:24;;;;;;;19.13;18.30;;;6.20;99.90;;;;;;4833634;29;20223;-70
2023/01/15 09:20:49;;;;;;;18.90;18.10;;;6.20;99.90;;;;;;4822552;29;20221;-69
2023/01/15 09:23:15;;;;;;;22.30;21.33;;;6.30;99.90;;;;;;4823007;29;20273;-69
2023/01/15 09:25:54;;;;;;;24.60;23.27;;;6.30;99.90;;;;;;4835469;29;20192;-69
2023/01/15 09:28:20;;;;;;;22.47;21.50;;;6.40;99.90;;;;;;4839267;29;20193;-69
2023/01/15 09:30:46;;;;;;;25.37;24.20;;;6.30;99.90;;;;;;4840657;29;20210;-70
2023/01/15 09:33:11;;;;;;;7.40;7.13;;;6.30;99.90;;;;;;4839401;29;20186;-71
2023/01/15 09:35:37;;;;;;;5.40;5.27;;;6.20;99.90;;;;;;4841205;29;20596;-69
2023/01/15 09:38:03;;;;;;;4.67;4.50;;;6.20;99.90;;;;;;4841271;29;20340;-71
2023/01/15 09:40:48;;;;;;;5.63;5.47;;;6.10;99.90;;;;;;4840592;29;20208;-71
2023/01/15 09:43:22;;;;;;;9.57;9.20;;;6.10;99.90;;;;;;4839733;29;20280;-71
2023/01/15 09:45:58;;;;;;;7.17;6.87;;;6.10;99.90;;;;;;4839053;29;20207;-71
2023/01/15 09:48:55;;;;;;;4.30;4.20;;;6.10;99.90;;;;;;4839357;29;20193;-71
2023/01/15 09:51:26;;;;;;;5.00;4.73;;;6.00;99.90;;;;;;4840295;29;20214;-71
2023/01/15 09:54:04;;;;;;;4.53;4.43;;;5.90;99.90;;;;;;4840464;29;20563;-71
2023/01/15 09:56:34;;;;;;;12.27;11.17;;;5.90;99.90;;;;;;4839324;29;20193;-70
2023/01/15 09:59:13;;;;;;;8.33;7.63;;;5.90;99.90;;;;;;4840139;29;20221;-70
2023/01/15 10:01:41;;;;;;;4.77;4.67;;;6.00;99.90;;;;;;4840317;29;20324;-69
2023/01/15 10:04:17;;;;;;;4.53;4.43;;;6.00;99.90;;;;;;4840106;29;20185;-69
2023/01/15 10:06:50;;;;;;;4.37;4.17;;;5.90;99.90;;;;;;4820841;29;20197;-70
2023/01/15 10:09:33;;;;;;;4.07;3.97;;;5.90;99.90;;;;;;4820929;29;20201;-69
2023/01/15 10:15:34;;;;;;;4.27;4.17;;;5.90;99.90;;;;;;4828391;29;20262;-71
2023/01/15 10:18:00;;;;;;;4.23;4.13;;;5.90;99.90;;;;;;4839714;29;20232;-72
2023/01/15 10:20:41;;;;;;;5.00;4.90;;;5.90;99.90;;;;;;4839030;29;20186;-72
2023/01/15 10:23:25;;;;;;;5.30;5.10;;;5.90;99.90;;;;;;4838820;29;20318;-72
2023/01/15 10:25:58;;;;;;;5.53;5.33;;;5.90;99.90;;;;;;4838991;29;20196;-72
2023/01/15 10:28:56;;;;;;;4.73;4.63;;;5.90;99.90;;;;;;4839897;29;20549;-72
2023/01/15 10:31:42;;;;;;;4.20;4.10;;;5.90;99.90;;;;;;4832398;29;20225;-72
2023/01/15 10:34:26;;;;;;;13.13;12.53;;;5.80;99.90;;;;;;4840102;29;20189;-72
2023/01/15 10:37:30;;;;;;;9.50;9.20;;;5.80;99.90;;;;;;4821600;29;20667;-72
2023/01/15 10:40:50;;;;;;;11.23;10.80;;;5.80;99.90;;;;;;4800739;29;20386;-72
2023/01/15 10:43:23;;;;;;;15.47;14.87;;;5.70;99.90;;;;;;4783272;29;20187;-72
2023/01/15 10:45:58;;;;;;;8.80;8.50;;;5.70;99.90;;;;;;4830394;29;20198;-72
2023/01/15 10:48:42;;;;;;;18.33;17.57;;;5.60;99.90;;;;;;4839905;29;20185;-72
2023/01/15 10:51:17;;;;;;;15.23;14.63;;;5.50;99.90;;;;;;4840688;29;20202;-72
2023/01/15 10:53:57;;;;;;;29.30;27.90;;;5.50;99.90;;;;;;4840196;29;20196;-72
2023/01/15 10:56:33;;;;;;;8.13;7.83;;;5.50;99.90;;;;;;4839904;29;20186;-72
2023/01/15 10:59:14;;;;;;;13.33;12.73;;;5.40;99.90;;;;;;4838577;29;20323;-72
2023/01/15 11:01:40;;;;;;;7.93;7.63;;;5.40;99.90;;;;;;4839964;29;20600;-72
2023/01/15 11:04:12;;;;;;;6.53;6.33;;;5.40;99.90;;;;;;4840723;29;20182;-72
2023/01/15 11:06:38;;;;;;;6.80;6.60;;;5.40;99.90;;;;;;4842140;29;20190;-72
2023/01/15 11:09:05;;;;;;;18.77;17.97;;;5.30;99.90;;;;;;4843608;29;20190;-72
2023/01/15 11:19:56;;;;;;;7.07;6.83;;;5.10;99.90;;;;;;4823198;29;20594;-72
2023/01/15 11:22:21;;;;;;;6.47;6.27;;;5.00;99.90;;;;;;4824640;29;20221;-72
2023/01/15 11:24:56;;;;;;;5.10;5.00;;;5.00;99.90;;;;;;4842061;29;20193;-72
2023/01/15 11:27:29;;;;;;;15.13;14.33;;;5.00;99.90;;;;;;4832789;29;20666;-72
2023/01/15 11:29:57;;;;;;;8.67;8.33;;;5.00;99.90;;;;;;4842702;29;20193;-72
2023/01/15 11:32:35;;;;;;;4.70;4.60;;;4.90;99.90;;;;;;4842767;29;20212;-73
2023/01/15 11:35:12;;;;;;;5.13;5.03;;;4.90;99.90;;;;;;4841322;29;20198;-73
2023/01/15 11:37:38;;;;;;;6.70;6.50;;;4.90;99.90;;;;;;4842322;29;20194;-72
2023/01/15 11:40:06;;;;;;;29.50;28.20;;;4.80;99.90;;;;;;4842486;29;20261;-72
2023/01/15 11:51:13;;;;;;;4.13;4.03;;;4.70;99.90;;;;;;4842536;29;20694;-72
2023/01/15 11:54:02;;;;;;;8.07;7.63;;;4.70;99.90;;;;;;4841583;29;20272;-73
2023/01/15 11:56:30;;;;;;;31.57;29.97;;;4.70;99.90;;;;;;4841547;29;20189;-73
2023/01/15 11:59:00;;;;;;;32.13;30.53;;;4.70;99.90;;;;;;4842531;29;20245;-72
2023/01/15 12:01:37;;;;;;;5.17;5.07;;;4.60;99.90;;;;;;4840512;29;20588;-73
2023/01/15 12:04:33;;;;;;;6.10;5.50;;;4.50;99.90;;;;;;4840935;29;20230;-73
2023/01/15 12:07:00;;;;;;;5.30;5.00;;;4.50;99.90;;;;;;4840574;29;20213;-72
2023/01/15 12:09:42;;;;;;;5.37;5.20;;;4.50;99.90;;;;;;4842263;29;20184;-75
2023/01/15 12:12:30;;;;;;;5.53;5.23;;;4.50;99.90;;;;;;4840762;29;20220;-72
2023/01/15 12:15:39;;;;;;;4.90;4.80;;;4.40;99.90;;;;;;4842447;29;20366;-71
2023/01/15 12:18:27;;;;;;;4.10;4.00;;;4.50;99.90;;;;;;4802052;29;20223;-69
2023/01/15 12:21:17;;;;;;;6.70;6.50;;;4.50;99.90;;;;;;4839963;29;20218;-69
2023/01/15 12:24:12;;;;;;;7.67;7.40;;;4.50;99.90;;;;;;4838719;29;20243;-70
2023/01/15 12:26:50;;;;;;;6.57;6.37;;;4.50;99.90;;;;;;4822989;29;20202;-70
2023/01/15 12:29:30;;;;;;;6.23;6.03;;;4.50;99.90;;;;;;4823597;29;20201;-70
2023/01/15 12:32:09;;;;;;;4.90;4.70;;;4.60;99.90;;;;;;4852603;29;20256;-70
2023/01/15 12:34:46;;;;;;;5.90;5.70;;;4.70;99.90;;;;;;4840962;29;20746;-70
2023/01/15 12:37:27;;;;;;;8.93;8.63;;;4.70;99.90;;;;;;4841353;29;20235;-71
2023/01/15 12:40:03;;;;;;;8.90;8.60;;;4.70;99.90;;;;;;4821930;29;20197;-74
2023/01/15 12:45:32;;;;;;;18.00;17.03;;;4.80;99.90;;;;;;4841376;29;20575;-74
2023/01/15 12:48:28;;;;;;;4.10;4.00;;;4.80;99.90;;;;;;4840044;29;20249;-76
2023/01/15 12:50:57;;;;;;;5.37;5.17;;;4.90;99.90;;;;;;4834863;29;20226;-72
2023/01/15 12:53:54;;;;;;;5.23;5.03;;;4.90;99.90;;;;;;4837447;29;20205;-67
2023/01/15 12:56:40;;;;;;;5.57;5.27;;;5.00;99.90;;;;;;4825097;29;20225;-67
2023/01/15 12:59:21;;;;;;;6.13;5.73;;;5.10;99.90;;;;;;4858199;29;20224;-67
2023/01/15 13:01:55;;;;;;;71.63;67.97;;;5.20;99.90;;;;;;4853667;29;20246;-67
2023/01/15 13:04:27;;;;;;;22.33;21.33;;;5.20;99.90;;;;;;4843155;29;20190;-67
2023/01/15 13:07:08;;;;;;;21.87;20.83;;;5.20;99.90;;;;;;4839916;29;20204;-67
2023/01/15 13:09:46;;;;;;;22.97;21.97;;;5.20;99.90;;;;;;4841573;29;20188;-67
2023/01/15 13:12:16;;;;;;;19.40;18.60;;;5.20;99.90;;;;;;4840831;29;20217;-68
2023/01/15 13:14:42;;;;;;;9.03;8.63;;;5.20;99.90;;;;;;4839875;29;20186;-67
2023/01/15 13:17:34;;;;;;;4.83;4.73;;;5.20;99.90;;;;;;4840265;29;20197;-72
2023/01/15 13:20:34;;;;;;;5.27;5.07;;;5.20;99.90;;;;;;4839491;29;20217;-70
2023/01/15 13:23:32;;;;;;;5.83;5.63;;;5.20;99.90;;;;;;4840121;29;20326;-70
2023/01/15 13:26:04;;;;;;;5.13;4.90;;;5.40;99.90;;;;;;4840533;29;20210;-70
2023/01/15 13:29:13;;;;;;;5.37;5.17;;;5.50;99.90;;;;;;4838179;29;20194;-70
2023/01/15 13:32:06;;;;;;;9.93;9.50;;;5.60;99.90;;;;;;4838740;29;20264;-70
2023/01/15 13:34:37;;;;;;;9.33;8.83;;;5.60;99.90;;;;;;4839025;29;20659;-70
2023/01/15 13:37:19;;;;;;;8.50;8.20;;;5.50;99.90;;;;;;4839943;29;20552;-70
2023/01/15 13:39:48;;;;;;;10.30;9.90;;;5.50;99.90;;;;;;4840005;29;20538;-70
2023/01/15 13:42:32;;;;;;;10.87;10.20;;;5.50;99.90;;;;;;4839823;29;20690;-70
2023/01/15 13:45:25;;;;;;;16.50;14.80;;;5.60;99.90;;;;;;4839799;29;20185;-70
2023/01/15 13:47:54;;;;;;;10.30;9.80;;;5.60;99.90;;;;;;4839836;29;20708;-70
2023/01/15 13:50:36;;;;;;;9.70;9.30;;;5.60;99.90;;;;;;4840138;29;20190;-70
2023/01/15 13:53:27;;;;;;;12.07;11.47;;;5.70;99.90;;;;;;4839985;29;20277;-70
2023/01/15 13:56:04;;;;;;;9.80;9.30;;;5.70;99.90;;;;;;4840309;29;20197;-70
2023/01/15 13:58:36;;;;;;;9.60;9.17;;;5.80;99.90;;;;;;4839652;29;20587;-70
2023/01/15 14:01:20;;;;;;;13.10;12.50;;;5.90;99.90;;;;;;4838863;29;20797;-70
2023/01/15 14:04:00;;;;;;;13.27;12.57;;;6.00;99.90;;;;;;4822032;29;20562;-70
2023/01/15 14:06:36;;;;;;;8.27;7.87;;;6.10;99.90;;;;;;4836262;29;20190;-71
2023/01/15 14:09:04;;;;;;;15.80;15.10;;;6.20;99.90;;;;;;4821044;29;20232;-71
2023/01/15 14:11:41;;;;;;;15.67;14.97;;;6.20;99.90;;;;;;4823781;29;20202;-71
2023/01/15 14:14:35;;;;;;;16.13;15.43;;;6.20;99.90;;;;;;4840422;29;20685;-71
2023/01/15 14:17:07;;;;;;;49.40;47.00;;;6.20;99.90;;;;;;4836194;29;20197;-70
2023/01/15 14:19:33;;;;;;;16.50;15.40;;;6.20;99.90;;;;;;4839826;29;20269;-70
2023/01/15 14:22:34;;;;;;;22.47;21.17;;;6.30;99.90;;;;;;4839562;29;20637;-70
2023/01/15 14:25:22;;;;;;;15.40;14.73;;;6.60;99.90;;;;;;4840035;29;20658;-70
2023/01/15 14:27:54;;;;;;;11.10;10.60;;;6.80;99.90;;;;;;4839893;29;20718;-70
2023/01/15 14:30:46;;;;;;;6.27;6.07;;;7.20;99.90;;;;;;4839914;29;20201;-69
2023/01/15 14:33:29;;;;;;;4.37;4.23;;;8.40;99.90;;;;;;4817897;29;20664;-70
2023/01/15 14:35:55;;;;;;;4.87;4.27;;;8.90;99.90;;;;;;4821697;29;20193;-71
2023/01/15 14:38:26;;;;;;;6.23;5.93;;;8.70;99.90;;;;;;4821279;29;20225;-70
2023/01/15 14:40:58;;;;;;;8.63;8.17;;;8.50;99.90;;;;;;4826329;29;20221;-70
2023/01/15 14:43:27;;;;;;;10.63;10.03;;;8.30;99.90;;;;;;4840507;29;20182;-70
2023/01/15 14:45:53;;;;;;;7.87;7.53;;;7.90;99.90;;;;;;4844790;29;20571;-70
2023/01/15 14:48:47;;;;;;;8.53;8.13;;;7.40;99.90;;;;;;4843130;29;20193;-70
2023/01/15 14:51:24;;;;;;;9.17;8.77;;;7.20;99.90;;;;;;4843849;29;20246;-70
2023/01/15 14:54:02;;;;;;;10.07;9.37;;;7.10;99.90;;;;;;4843651;29;20189;-70
2023/01/15 14:56:36;;;;;;;10.83;9.03;;;6.90;99.90;;;;;;4843202;29;20571;-71
2023/01/15 14:59:02;;;;;;;7.97;7.27;;;6.80;99.90;;;;;;4842522;29;20721;-69
2023/01/15 15:01:57;;;;;;;6.70;6.00;;;6.80;99.90;;;;;;4842678;29;20229;-70
2023/01/15 15:04:34;;;;;;;5.37;5.17;;;6.90;99.90;;;;;;4824133;29;20879;-70
2023/01/15 15:07:12;;;;;;;5.80;5.20;;;6.80;99.90;;;;;;4824337;29;20210;-70
2023/01/15 15:09:47;;;;;;;5.50;5.17;;;6.90;99.90;;;;;;4823201;29;20194;-70
2023/01/15 15:12:38;;;;;;;5.77;5.40;;;6.80;99.90;;;;;;4828725;29;20300;-70
2023/01/15 15:15:12;;;;;;;5.73;5.43;;;6.80;99.90;;;;;;4841480;29;20192;-69
2023/01/15 15:18:00;;;;;;;6.00;5.70;;;6.70;99.90;;;;;;4842090;29;20220;-69
2023/01/15 15:20:41;;;;;;;6.30;5.77;;;6.60;99.90;;;;;;4841458;29;20197;-70
2023/01/15 15:23:28;;;;;;;5.87;5.57;;;6.40;99.90;;;;;;4842256;29;20289;-70
2023/01/15 15:26:17;;;;;;;6.07;5.73;;;6.30;99.90;;;;;;4841399;29;20198;-70
2023/01/15 15:28:54;;;;;;;5.93;5.37;;;6.20;99.90;;;;;;4840862;29;20193;-70
2023/01/15 15:31:24;;;;;;;8.23;6.60;;;6.00;99.90;;;;;;4841631;29;20586;-70
2023/01/15 15:33:52;;;;;;;5.10;4.80;;;5.90;99.90;;;;;;4842448;29;20189;-70
2023/01/15 15:36:18;;;;;;;6.93;6.40;;;5.80;99.90;;;;;;4842631;29;20277;-70
2023/01/15 15:39:19;;;;;;;8.30;7.80;;;5.70;99.90;;;;;;4840860;29;20221;-69
2023/01/15 15:50:30;;;;;;;7.47;7.17;;;5.50;99.90;;;;;;4841799;29;20631;-70
2023/01/15 15:52:58;;;;;;;7.10;6.80;;;5.40;99.90;;;;;;4842213;29;20190;-70
2023/01/15 15:55:31;;;;;;;13.90;12.90;;;5.30;99.90;;;;;;4842075;29;20655;-70
2023/01/15 15:58:00;;;;;;;15.53;14.37;;;5.20;99.90;;;;;;4842023;29;20217;-70
2023/01/15 16:00:33;;;;;;;19.30;18.40;;;5.20;99.90;;;;;;4841927;29;20217;-70
2023/01/15 16:03:05;;;;;;;14.43;13.30;;;5.20;99.90;;;;;;4842007;29;20245;-70
2023/01/15 16:05:31;;;;;;;14.67;13.97;;;5.10;99.90;;;;;;4840840;29;20189;-70
2023/01/15 16:08:15;;;;;;;15.60;14.70;;;5.10;99.90;;;;;;4852687;29;20272;-71
2023/01/15 16:10:40;;;;;;;14.13;13.47;;;5.00;99.90;;;;;;4859263;29;20295;-70
2023/01/15 16:13:12;;;;;;;15.73;14.93;;;5.00;99.90;;;;;;4849253;29;20272;-70
2023/01/15 16:15:40;;;;;;;19.17;18.33;;;4.90;99.90;;;;;;4841752;29;20218;-71
2023/01/15 16:18:19;;;;;;;16.33;15.43;;;4.80;99.90;;;;;;4840840;29;20225;-71
2023/01/15 16:20:45;;;;;;;10.80;10.20;;;4.70;99.90;;;;;;4841427;29;20231;-71
2023/01/15 16:23:25;;;;;;;8.33;7.93;;;4.60;99.90;;;;;;4841275;29;20190;-71
2023/01/15 16:26:13;;;;;;;8.53;8.23;;;4.60;99.90;;;;;;4841695;29;20204;-70
2023/01/15 16:28:43;;;;;;;7.90;7.50;;;4.60;99.90;;;;;;4825955;29;20730;-71
2023/01/15 16:31:10;;;;;;;9.03;8.43;;;4.50;99.90;;;;;;4841085;29;20269;-71
2023/01/15 16:33:37;;;;;;;8.30;7.87;;;4.50;99.90;;;;;;4839937;29;20186;-71
2023/01/15 16:36:05;;;;;;;7.90;7.60;;;4.50;99.90;;;;;;4840186;29;20189;-71
2023/01/15 16:38:33;;;;;;;8.30;7.73;;;4.40;99.90;;;;;;4840862;29;20216;-72
2023/01/15 16:41:00;;;;;;;7.83;7.33;;;4.30;99.90;;;;;;4842248;29;20206;-80
2023/01/15 16:43:28;;;;;;;8.17;7.70;;;4.30;99.90;;;;;;4847798;29;20181;-80
2023/01/15 16:45:57;;;;;;;12.27;11.77;;;4.20;99.90;;;;;;4850557;29;20217;-78
2023/01/15 16:48:36;;;;;;;9.80;9.10;;;4.20;99.90;;;;;;4847121;29;20196;-79
2023/01/15 16:51:34;;;;;;;9.03;8.37;;;4.20;99.90;;;;;;4851207;29;20305;-79
2023/01/15 16:54:03;;;;;;;10.83;10.13;;;4.20;99.90;;;;;;4854390;29;20745;-78
2023/01/15 16:56:50;;;;;;;13.13;12.40;;;4.20;99.90;;;;;;4853433;29;20220;-79
2023/01/15 16:59:17;;;;;;;9.53;9.03;;;4.30;99.90;;;;;;4857442;29;20217;-79
2023/01/15 17:01:47;;;;;;;10.67;10.10;;;4.30;99.90;;;;;;4852920;29;20244;-79
2023/01/15 17:04:34;;;;;;;12.43;11.63;;;4.20;99.90;;;;;;4844377;29;20231;-78
2023/01/15 17:07:02;;;;;;;11.60;11.07;;;4.20;99.90;;;;;;4847911;29;20196;-78
2023/01/15 17:09:32;;;;;;;10.13;9.53;;;4.20;99.90;;;;;;4851563;29;20534;-78
2023/01/15 17:12:20;;;;;;;9.17;8.67;;;4.20;99.90;;;;;;4847943;29;20273;-78
2023/01/15 17:14:46;;;;;;;14.53;13.00;;;4.20;99.90;;;;;;4843900;29;20669;-78
2023/01/15 17:17:21;;;;;;;12.23;11.03;;;4.30;99.90;;;;;;4850494;29;20328;-78
2023/01/15 17:19:48;;;;;;;11.93;11.17;;;4.30;99.90;;;;;;4855736;29;20226;-79
2023/01/15 17:22:35;;;;;;;14.67;13.93;;;4.30;99.90;;;;;;4853918;29;20214;-79
2023/01/15 17:25:01;;;;;;;14.83;14.03;;;4.20;99.90;;;;;;4851271;29;20186;-79
2023/01/15 17:27:28;;;;;;;12.57;11.83;;;4.20;99.90;;;;;;4851662;29;20252;-78
2023/01/15 17:29:55;;;;;;;9.53;8.93;;;4.20;99.90;;;;;;4851510;29;20189;-79
2023/01/15 17:32:39;;;;;;;10.97;10.27;;;4.20;99.90;;;;;;4851164;29;20256;-79
2023/01/15 17:35:06;;;;;;;10.20;9.70;;;4.10;99.90;;;;;;4854079;29;20198;-79
2023/01/15 17:37:32;;;;;;;10.80;10.00;;;4.10;99.90;;;;;;4850592;29;20285;-78
2023/01/15 17:39:57;;;;;;;10.60;9.87;;;4.10;99.90;;;;;;4846802;29;20257;-78
2023/01/15 17:42:23;;;;;;;11.30;10.57;;;4.10;99.90;;;;;;4848673;29;20208;-78
2023/01/15 17:44:49;;;;;;;11.97;11.13;;;4.10;99.90;;;;;;4850798;29;20257;-78
2023/01/15 17:47:15;;;;;;;10.70;10.10;;;4.10;99.90;;;;;;4871586;29;20248;-78
2023/01/15 17:49:40;;;;;;;8.63;8.17;;;4.10;99.90;;;;;;4881260;29;20197;-79
2023/01/15 17:52:12;;;;;;;7.77;7.40;;;4.10;99.90;;;;;;4874055;29;20201;-78
2023/01/15 18:05:40;;;;;;;6.30;5.70;;;3.80;99.90;;;;;;4855250;29;20196;-79
2023/01/15 18:08:08;;;;;;;6.30;5.90;;;3.70;99.90;;;;;;4850520;29;20180;-77
2023/01/15 18:10:34;;;;;;;7.07;6.57;;;3.80;99.90;;;;;;4841481;29;20216;-77
2023/01/15 18:13:01;;;;;;;7.30;6.50;;;3.80;99.90;;;;;;4850985;29;20189;-79
2023/01/15 18:15:27;;;;;;;5.60;5.30;;;3.80;99.90;;;;;;4846362;29;20193;-79
2023/01/15 18:17:53;;;;;;;6.43;5.73;;;3.70;99.90;;;;;;4846245;29;20663;-80
2023/01/15 18:20:19;;;;;;;6.30;5.80;;;3.70;99.90;;;;;;4846740;29;20214;-80
2023/01/15 18:22:45;;;;;;;6.53;6.13;;;3.70;99.90;;;;;;4845998;29;20187;-79
2023/01/15 18:25:11;;;;;;;5.83;5.43;;;3.70;99.90;;;;;;4847350;29;20224;-79